sensor_id;sensor_type;location;lat;lon;timestamp;temperature;humidity
59847;DHT22;45728;48.788;2.302;2022-08-19T00:01:52;20.20;99.90
59847;DHT22;45728;48.788;2.302;2022-08-19T00:04:20;20.10;99.90
59847;DHT22;45728;48.788;2.302;2022-08-19T00:06:46;20.10;99.90
59847;DHT22;45728;48.788;2.302;2022-08-19T00:09:14;20.10;99.90
59847;DHT22;45728;48.788;2.302;2022-08-19T00:11:41;20.10;99.90
59847;DHT22;45728;48.788;2.302;2022-08-19T00:14:07;20.10;99.90
59847;DHT22;45728;48.788;2.302;2022-08-19T00:16:36;20.10;99.90
59847;DHT22;45728;48.788;2.302;2022-08-19T00:19:02;20.10;99.90
59847;DHT22;45728;48.788;2.302;2022-08-19T00:21:28;20.10;99.90
59847;DHT22;45728;48.788;2.302;2022-08-19T00:23:55;20.10;99.90
59847;DHT22;45728;48.788;2.302;2022-08-19T00:26:24;20.10;99.90
59847;DHT22;45728;48.788;2.302;2022-08-19T00:28:50;20.20;99.90
59847;DHT22;45728;48.788;2.302;2022-08-19T00:31:16;20.20;99.90
59847;DHT22;45728;48.788;2.302;2022-08-19T00:33:42;20.20;99.90
59847;DHT22;45728;48.788;2.302;2022-08-19T00:36:08;20.10;99.90
59847;DHT22;45728;48.788;2.302;2022-08-19T00:38:36;20.10;99.90
59847;DHT22;45728;48.788;2.302;2022-08-19T00:41:02;20.10;99.90
59847;DHT22;45728;48.788;2.302;2022-08-19T00:43:28;20.00;99.90
59847;DHT22;45728;48.788;2.302;2022-08-19T00:45:54;19.90;99.90
59847;DHT22;45728;48.788;2.302;2022-08-19T00:48:20;19.90;99.90
59847;DHT22;45728;48.788;2.302;2022-08-19T00:50:47;19.90;99.90
59847;DHT22;45728;48.788;2.302;2022-08-19T00:53:15;19.80;99.90
59847;DHT22;45728;48.788;2.302;2022-08-19T00:55:44;19.80;99.90
59847;DHT22;45728;48.788;2.302;2022-08-19T00:58:12;19.70;99.90
59847;DHT22;45728;48.788;2.302;2022-08-19T01:00:39;19.70;99.90
59847;DHT22;45728;48.788;2.302;2022-08-19T01:03:06;19.70;99.90
59847;DHT22;45728;48.788;2.302;2022-08-19T01:05:32;19.60;99.90
59847;DHT22;45728;48.788;2.302;2022-08-19T01:07:59;19.50;99.90
59847;DHT22;45728;48.788;2.302;2022-08-19T01:10:27;19.50;99.90
59847;DHT22;45728;48.788;2.302;2022-08-19T01:12:53;19.40;99.90
59847;DHT22;45728;48.788;2.302;2022-08-19T01:15:21;19.40;99.90
59847;DHT22;45728;48.788;2.302;2022-08-19T01:17:48;19.40;99.90
59847;DHT22;45728;48.788;2.302;2022-08-19T01:20:16;19.30;99.90
59847;DHT22;45728;48.788;2.302;2022-08-19T01:22:45;19.30;99.90
59847;DHT22;45728;48.788;2.302;2022-08-19T01:25:12;19.30;99.90
59847;DHT22;45728;48.788;2.302;2022-08-19T01:27:39;19.30;99.90
59847;DHT22;45728;48.788;2.302;2022-08-19T01:30:05;19.20;99.90
59847;DHT22;45728;48.788;2.302;2022-08-19T01:32:32;19.20;99.90
59847;DHT22;45728;48.788;2.302;2022-08-19T01:34:58;19.20;99.90
59847;DHT22;45728;48.788;2.302;2022-08-19T01:37:27;19.20;99.90
59847;DHT22;45728;48.788;2.302;2022-08-19T01:39:53;19.20;99.90
59847;DHT22;45728;48.788;2.302;2022-08-19T01:42:18;19.10;99.90
59847;DHT22;45728;48.788;2.302;2022-08-19T01:44:45;19.10;99.90
59847;DHT22;45728;48.788;2.302;2022-08-19T01:47:11;19.10;99.90
59847;DHT22;45728;48.788;2.302;2022-08-19T01:49:37;19.00;99.90
59847;DHT22;45728;48.788;2.302;2022-08-19T01:52:03;19.00;99.90
59847;DHT22;45728;48.788;2.302;2022-08-19T01:54:29;19.00;99.90
59847;DHT22;45728;48.788;2.302;2022-08-19T01:56:58;19.00;99.90
59847;DHT22;45728;48.788;2.302;2022-08-19T01:59:25;19.00;99.90
59847;DHT22;45728;48.788;2.302;2022-08-19T02:01:51;18.90;99.90
59847;DHT22;45728;48.788;2.302;2022-08-19T02:04:17;18.90;99.90
59847;DHT22;45728;48.788;2.302;2022-08-19T02:06:43;18.80;99.90
59847;DHT22;45728;48.788;2.302;2022-08-19T02:09:09;18.90;99.90
59847;DHT22;45728;48.788;2.302;2022-08-19T02:11:36;18.90;99.90
59847;DHT22;45728;48.788;2.302;2022-08-19T02:14:03;19.00;99.90
59847;DHT22;45728;48.788;2.302;2022-08-19T02:16:30;19.00;99.90
59847;DHT22;45728;48.788;2.302;2022-08-19T02:18:56;19.00;99.90
59847;DHT22;45728;48.788;2.302;2022-08-19T02:21:22;19.00;99.90
59847;DHT22;45728;48.788;2.302;2022-08-19T02:23:49;19.10;99.90
59847;DHT22;45728;48.788;2.302;2022-08-19T02:26:16;19.00;99.90
59847;DHT22;45728;48.788;2.302;2022-08-19T02:28:42;19.10;99.90
59847;DHT22;45728;48.788;2.302;2022-08-19T02:31:09;19.00;99.90
59847;DHT22;45728;48.788;2.302;2022-08-19T02:33:35;19.00;99.90
59847;DHT22;45728;48.788;2.302;2022-08-19T02:36:03;19.10;99.90
59847;DHT22;45728;48.788;2.302;2022-08-19T02:38:29;19.10;99.90
59847;DHT22;45728;48.788;2.302;2022-08-19T02:40:59;19.10;99.90
59847;DHT22;45728;48.788;2.302;2022-08-19T02:43:26;19.10;99.90
59847;DHT22;45728;48.788;2.302;2022-08-19T02:45:53;19.00;99.90
59847;DHT22;45728;48.788;2.302;2022-08-19T02:48:19;18.90;99.90
59847;DHT22;45728;48.788;2.302;2022-08-19T02:50:46;18.90;99.90
59847;DHT22;45728;48.788;2.302;2022-08-19T02:53:12;18.90;99.90
59847;DHT22;45728;48.788;2.302;2022-08-19T02:55:45;18.90;99.90
59847;DHT22;45728;48.788;2.302;2022-08-19T02:58:11;18.90;99.90
59847;DHT22;45728;48.788;2.302;2022-08-19T03:00:42;19.00;99.90
59847;DHT22;45728;48.788;2.302;2022-08-19T03:03:08;19.00;99.90
59847;DHT22;45728;48.788;2.302;2022-08-19T03:05:33;19.00;99.90
59847;DHT22;45728;48.788;2.302;2022-08-19T03:07:59;19.00;99.90
59847;DHT22;45728;48.788;2.302;2022-08-19T03:10:25;19.10;99.90
59847;DHT22;45728;48.788;2.302;2022-08-19T03:12:51;19.10;99.90
59847;DHT22;45728;48.788;2.302;2022-08-19T03:15:17;19.10;99.90
59847;DHT22;45728;48.788;2.302;2022-08-19T03:17:43;19.10;99.90
59847;DHT22;45728;48.788;2.302;2022-08-19T03:20:09;19.10;99.90
59847;DHT22;45728;48.788;2.302;2022-08-19T03:22:35;19.00;99.90
59847;DHT22;45728;48.788;2.302;2022-08-19T03:25:02;19.00;99.90
59847;DHT22;45728;48.788;2.302;2022-08-19T03:27:28;19.10;99.90
59847;DHT22;45728;48.788;2.302;2022-08-19T03:29:55;19.20;99.90
59847;DHT22;45728;48.788;2.302;2022-08-19T03:32:21;19.10;99.90
59847;DHT22;45728;48.788;2.302;2022-08-19T03:34:47;19.10;99.90
59847;DHT22;45728;48.788;2.302;2022-08-19T03:37:13;19.10;99.90
59847;DHT22;45728;48.788;2.302;2022-08-19T03:39:39;19.10;99.90
59847;DHT22;45728;48.788;2.302;2022-08-19T03:42:06;19.10;99.90
59847;DHT22;45728;48.788;2.302;2022-08-19T03:44:32;19.00;99.90
59847;DHT22;45728;48.788;2.302;2022-08-19T03:46:59;19.00;99.90
59847;DHT22;45728;48.788;2.302;2022-08-19T03:49:27;19.00;99.90
59847;DHT22;45728;48.788;2.302;2022-08-19T03:51:54;19.00;99.90
59847;DHT22;45728;48.788;2.302;2022-08-19T03:54:21;19.00;99.90
59847;DHT22;45728;48.788;2.302;2022-08-19T03:56:51;19.10;99.90
59847;DHT22;45728;48.788;2.302;2022-08-19T03:59:22;19.10;99.90
59847;DHT22;45728;48.788;2.302;2022-08-19T04:01:51;19.10;99.90
59847;DHT22;45728;48.788;2.302;2022-08-19T04:04:16;19.10;99.90
59847;DHT22;45728;48.788;2.302;2022-08-19T04:06:42;19.10;99.90
59847;DHT22;45728;48.788;2.302;2022-08-19T04:09:09;19.20;99.90
59847;DHT22;45728;48.788;2.302;2022-08-19T04:11:39;19.20;99.90
59847;DHT22;45728;48.788;2.302;2022-08-19T04:14:07;19.20;99.90
59847;DHT22;45728;48.788;2.302;2022-08-19T04:16:34;19.20;99.90
59847;DHT22;45728;48.788;2.302;2022-08-19T04:19:00;19.10;99.90
59847;DHT22;45728;48.788;2.302;2022-08-19T04:21:27;19.10;99.90
59847;DHT22;45728;48.788;2.302;2022-08-19T04:23:54;19.10;99.90
59847;DHT22;45728;48.788;2.302;2022-08-19T04:26:21;19.10;99.90
59847;DHT22;45728;48.788;2.302;2022-08-19T04:28:47;19.00;99.90
59847;DHT22;45728;48.788;2.302;2022-08-19T04:31:15;19.00;99.90
59847;DHT22;45728;48.788;2.302;2022-08-19T04:33:42;19.10;99.90
59847;DHT22;45728;48.788;2.302;2022-08-19T04:36:10;19.10;99.90
59847;DHT22;45728;48.788;2.302;2022-08-19T04:38:41;19.20;99.90
59847;DHT22;45728;48.788;2.302;2022-08-19T04:41:07;19.20;99.90
59847;DHT22;45728;48.788;2.302;2022-08-19T04:43:52;19.20;99.90
59847;DHT22;45728;48.788;2.302;2022-08-19T04:46:18;19.10;99.90
59847;DHT22;45728;48.788;2.302;2022-08-19T04:48:45;19.10;99.90
59847;DHT22;45728;48.788;2.302;2022-08-19T04:51:11;19.10;99.90
59847;DHT22;45728;48.788;2.302;2022-08-19T04:53:39;19.20;99.90
59847;DHT22;45728;48.788;2.302;2022-08-19T04:56:10;19.20;99.90
59847;DHT22;45728;48.788;2.302;2022-08-19T04:58:36;19.10;99.90
59847;DHT22;45728;48.788;2.302;2022-08-19T05:01:02;19.10;99.90
59847;DHT22;45728;48.788;2.302;2022-08-19T05:03:28;19.30;99.90
59847;DHT22;45728;48.788;2.302;2022-08-19T05:06:03;19.30;99.90
59847;DHT22;45728;48.788;2.302;2022-08-19T05:08:29;19.30;99.90
59847;DHT22;45728;48.788;2.302;2022-08-19T05:10:56;19.30;99.90
59847;DHT22;45728;48.788;2.302;2022-08-19T05:13:22;19.10;99.90
59847;DHT22;45728;48.788;2.302;2022-08-19T05:15:55;19.00;99.90
59847;DHT22;45728;48.788;2.302;2022-08-19T05:18:21;19.00;99.90
59847;DHT22;45728;48.788;2.302;2022-08-19T05:21:09;19.00;99.90
59847;DHT22;45728;48.788;2.302;2022-08-19T05:23:54;19.00;99.90
59847;DHT22;45728;48.788;2.302;2022-08-19T05:26:20;19.10;99.90
59847;DHT22;45728;48.788;2.302;2022-08-19T05:28:46;19.10;99.90
59847;DHT22;45728;48.788;2.302;2022-08-19T05:31:12;19.30;99.90
59847;DHT22;45728;48.788;2.302;2022-08-19T05:33:38;19.30;99.90
59847;DHT22;45728;48.788;2.302;2022-08-19T05:36:05;19.30;99.90
59847;DHT22;45728;48.788;2.302;2022-08-19T05:38:33;19.30;99.90
59847;DHT22;45728;48.788;2.302;2022-08-19T05:40:59;19.30;99.90
59847;DHT22;45728;48.788;2.302;2022-08-19T05:43:25;19.20;99.90
59847;DHT22;45728;48.788;2.302;2022-08-19T05:45:51;19.30;99.90
59847;DHT22;45728;48.788;2.302;2022-08-19T05:48:17;19.30;99.90
59847;DHT22;45728;48.788;2.302;2022-08-19T05:50:45;19.40;99.90
59847;DHT22;45728;48.788;2.302;2022-08-19T05:53:12;19.40;99.90
59847;DHT22;45728;48.788;2.302;2022-08-19T05:55:38;19.40;99.90
59847;DHT22;45728;48.788;2.302;2022-08-19T05:58:04;19.40;99.90
59847;DHT22;45728;48.788;2.302;2022-08-19T06:00:33;19.30;99.90
59847;DHT22;45728;48.788;2.302;2022-08-19T06:02:59;19.30;99.90
59847;DHT22;45728;48.788;2.302;2022-08-19T06:05:29;19.30;99.90
59847;DHT22;45728;48.788;2.302;2022-08-19T06:07:55;19.40;99.90
59847;DHT22;45728;48.788;2.302;2022-08-19T06:10:21;19.30;99.90
59847;DHT22;45728;48.788;2.302;2022-08-19T06:12:47;19.20;99.90
59847;DHT22;45728;48.788;2.302;2022-08-19T06:15:13;19.10;99.90
59847;DHT22;45728;48.788;2.302;2022-08-19T06:17:40;19.10;99.90
59847;DHT22;45728;48.788;2.302;2022-08-19T06:20:08;19.00;99.90
59847;DHT22;45728;48.788;2.302;2022-08-19T06:22:39;19.10;99.90
59847;DHT22;45728;48.788;2.302;2022-08-19T06:25:05;19.10;99.90
59847;DHT22;45728;48.788;2.302;2022-08-19T06:27:31;19.10;99.90
59847;DHT22;45728;48.788;2.302;2022-08-19T06:29:58;19.20;99.90
59847;DHT22;45728;48.788;2.302;2022-08-19T06:32:24;19.20;99.90
59847;DHT22;45728;48.788;2.302;2022-08-19T06:34:50;19.10;99.90
59847;DHT22;45728;48.788;2.302;2022-08-19T06:37:16;19.10;99.90
59847;DHT22;45728;48.788;2.302;2022-08-19T06:39:42;19.10;99.90
59847;DHT22;45728;48.788;2.302;2022-08-19T06:42:09;19.10;99.90
59847;DHT22;45728;48.788;2.302;2022-08-19T06:44:37;19.10;99.90
59847;DHT22;45728;48.788;2.302;2022-08-19T06:47:04;19.10;99.90
59847;DHT22;45728;48.788;2.302;2022-08-19T06:49:31;19.10;99.90
59847;DHT22;45728;48.788;2.302;2022-08-19T06:51:57;19.20;99.90
59847;DHT22;45728;48.788;2.302;2022-08-19T06:54:24;19.20;99.90
59847;DHT22;45728;48.788;2.302;2022-08-19T06:56:50;19.10;99.90
59847;DHT22;45728;48.788;2.302;2022-08-19T06:59:17;19.10;99.90
59847;DHT22;45728;48.788;2.302;2022-08-19T07:01:45;19.20;99.90
59847;DHT22;45728;48.788;2.302;2022-08-19T07:04:13;19.30;99.90
59847;DHT22;45728;48.788;2.302;2022-08-19T07:06:39;19.30;99.90
59847;DHT22;45728;48.788;2.302;2022-08-19T07:09:06;19.40;99.90
59847;DHT22;45728;48.788;2.302;2022-08-19T07:11:32;19.50;99.90
59847;DHT22;45728;48.788;2.302;2022-08-19T07:13:59;19.50;99.90
59847;DHT22;45728;48.788;2.302;2022-08-19T07:16:25;19.30;99.90
59847;DHT22;45728;48.788;2.302;2022-08-19T07:18:52;19.50;99.90
59847;DHT22;45728;48.788;2.302;2022-08-19T07:21:22;19.60;99.90
59847;DHT22;45728;48.788;2.302;2022-08-19T07:23:50;19.50;99.90
59847;DHT22;45728;48.788;2.302;2022-08-19T07:26:17;19.40;99.90
59847;DHT22;45728;48.788;2.302;2022-08-19T07:28:45;19.40;99.90
59847;DHT22;45728;48.788;2.302;2022-08-19T07:31:12;19.50;99.90
59847;DHT22;45728;48.788;2.302;2022-08-19T07:33:39;19.60;99.90
59847;DHT22;45728;48.788;2.302;2022-08-19T07:36:07;19.60;99.90
59847;DHT22;45728;48.788;2.302;2022-08-19T07:38:37;19.50;99.90
59847;DHT22;45728;48.788;2.302;2022-08-19T07:41:03;19.50;99.90
59847;DHT22;45728;48.788;2.302;2022-08-19T07:43:29;19.60;99.90
59847;DHT22;45728;48.788;2.302;2022-08-19T07:45:55;19.50;99.90
59847;DHT22;45728;48.788;2.302;2022-08-19T07:48:25;19.50;99.90
59847;DHT22;45728;48.788;2.302;2022-08-19T07:50:52;19.50;99.90
59847;DHT22;45728;48.788;2.302;2022-08-19T07:53:18;19.60;99.90
59847;DHT22;45728;48.788;2.302;2022-08-19T07:55:45;19.70;99.90
59847;DHT22;45728;48.788;2.302;2022-08-19T07:58:12;19.70;99.90
59847;DHT22;45728;48.788;2.302;2022-08-19T08:00:38;19.80;99.90
59847;DHT22;45728;48.788;2.302;2022-08-19T08:03:04;19.90;99.90
59847;DHT22;45728;48.788;2.302;2022-08-19T08:05:30;19.90;99.90
59847;DHT22;45728;48.788;2.302;2022-08-19T08:08:14;19.90;99.90
59847;DHT22;45728;48.788;2.302;2022-08-19T08:11:06;20.00;99.90
59847;DHT22;45728;48.788;2.302;2022-08-19T08:13:32;20.10;99.90
59847;DHT22;45728;48.788;2.302;2022-08-19T08:16:01;20.20;99.90
59847;DHT22;45728;48.788;2.302;2022-08-19T08:18:27;20.10;99.90
59847;DHT22;45728;48.788;2.302;2022-08-19T08:20:53;20.00;99.90
59847;DHT22;45728;48.788;2.302;2022-08-19T08:23:19;20.20;99.90
59847;DHT22;45728;48.788;2.302;2022-08-19T08:25:54;20.20;99.90
59847;DHT22;45728;48.788;2.302;2022-08-19T08:28:20;20.30;99.90
59847;DHT22;45728;48.788;2.302;2022-08-19T08:30:47;20.30;99.90
59847;DHT22;45728;48.788;2.302;2022-08-19T08:33:14;20.30;99.90
59847;DHT22;45728;48.788;2.302;2022-08-19T08:35:42;20.30;99.90
59847;DHT22;45728;48.788;2.302;2022-08-19T08:38:08;20.30;99.90
59847;DHT22;45728;48.788;2.302;2022-08-19T08:40:50;20.20;99.90
59847;DHT22;45728;48.788;2.302;2022-08-19T08:43:32;20.40;99.90
59847;DHT22;45728;48.788;2.302;2022-08-19T08:46:00;20.50;99.90
59847;DHT22;45728;48.788;2.302;2022-08-19T08:50:52;20.70;99.90
59847;DHT22;45728;48.788;2.302;2022-08-19T08:53:20;20.80;99.90
59847;DHT22;45728;48.788;2.302;2022-08-19T08:55:46;20.80;99.90
59847;DHT22;45728;48.788;2.302;2022-08-19T08:58:13;20.90;99.90
59847;DHT22;45728;48.788;2.302;2022-08-19T09:00:45;21.00;99.90
59847;DHT22;45728;48.788;2.302;2022-08-19T09:03:21;21.00;99.90
59847;DHT22;45728;48.788;2.302;2022-08-19T09:08:18;21.10;99.90
59847;DHT22;45728;48.788;2.302;2022-08-19T09:10:49;21.20;99.90
59847;DHT22;45728;48.788;2.302;2022-08-19T09:13:37;21.00;99.90
59847;DHT22;45728;48.788;2.302;2022-08-19T09:16:10;21.00;99.90
59847;DHT22;45728;48.788;2.302;2022-08-19T09:18:42;21.00;99.90
59847;DHT22;45728;48.788;2.302;2022-08-19T09:21:08;21.00;99.90
59847;DHT22;45728;48.788;2.302;2022-08-19T09:23:35;21.00;99.90
59847;DHT22;45728;48.788;2.302;2022-08-19T09:26:04;21.10;99.90
59847;DHT22;45728;48.788;2.302;2022-08-19T09:28:31;21.30;99.90
59847;DHT22;45728;48.788;2.302;2022-08-19T09:30:57;21.40;99.90
59847;DHT22;45728;48.788;2.302;2022-08-19T09:33:23;21.50;99.90
59847;DHT22;45728;48.788;2.302;2022-08-19T09:35:49;21.60;99.90
59847;DHT22;45728;48.788;2.302;2022-08-19T09:38:15;21.60;99.90
59847;DHT22;45728;48.788;2.302;2022-08-19T09:40:41;21.70;99.90
59847;DHT22;45728;48.788;2.302;2022-08-19T09:43:06;21.60;99.90
59847;DHT22;45728;48.788;2.302;2022-08-19T09:45:33;21.60;99.90
59847;DHT22;45728;48.788;2.302;2022-08-19T09:47:59;21.70;99.90
59847;DHT22;45728;48.788;2.302;2022-08-19T09:50:25;21.80;99.90
59847;DHT22;45728;48.788;2.302;2022-08-19T09:52:51;22.20;99.90
59847;DHT22;45728;48.788;2.302;2022-08-19T09:55:18;22.40;99.90
59847;DHT22;45728;48.788;2.302;2022-08-19T09:57:44;22.50;99.90
59847;DHT22;45728;48.788;2.302;2022-08-19T10:00:10;22.50;99.90
59847;DHT22;45728;48.788;2.302;2022-08-19T10:02:36;22.50;99.90
59847;DHT22;45728;48.788;2.302;2022-08-19T10:05:02;22.50;99.90
59847;DHT22;45728;48.788;2.302;2022-08-19T10:07:46;22.50;99.90
59847;DHT22;45728;48.788;2.302;2022-08-19T10:10:12;22.40;99.90
59847;DHT22;45728;48.788;2.302;2022-08-19T10:12:38;22.30;99.90
59847;DHT22;45728;48.788;2.302;2022-08-19T10:15:04;22.30;99.90
59847;DHT22;45728;48.788;2.302;2022-08-19T10:17:30;22.40;99.90
59847;DHT22;45728;48.788;2.302;2022-08-19T10:19:59;22.40;99.90
59847;DHT22;45728;48.788;2.302;2022-08-19T10:22:25;22.40;99.90
59847;DHT22;45728;48.788;2.302;2022-08-19T10:24:51;22.50;99.90
59847;DHT22;45728;48.788;2.302;2022-08-19T10:27:17;22.70;99.90
59847;DHT22;45728;48.788;2.302;2022-08-19T10:29:43;22.80;99.90
59847;DHT22;45728;48.788;2.302;2022-08-19T10:32:09;22.70;99.90
59847;DHT22;45728;48.788;2.302;2022-08-19T10:34:36;22.60;99.90
59847;DHT22;45728;48.788;2.302;2022-08-19T10:37:03;22.50;99.90
59847;DHT22;45728;48.788;2.302;2022-08-19T10:39:31;22.60;99.90
59847;DHT22;45728;48.788;2.302;2022-08-19T10:41:58;22.60;99.90
59847;DHT22;45728;48.788;2.302;2022-08-19T10:44:24;22.70;99.90
59847;DHT22;45728;48.788;2.302;2022-08-19T10:46:50;22.70;99.90
59847;DHT22;45728;48.788;2.302;2022-08-19T10:49:17;22.70;99.90
59847;DHT22;45728;48.788;2.302;2022-08-19T10:51:44;22.90;99.90
59847;DHT22;45728;48.788;2.302;2022-08-19T10:54:29;22.90;99.90
59847;DHT22;45728;48.788;2.302;2022-08-19T10:57:14;22.80;99.90
59847;DHT22;45728;48.788;2.302;2022-08-19T10:59:40;22.80;99.90
59847;DHT22;45728;48.788;2.302;2022-08-19T11:02:07;22.90;99.90
59847;DHT22;45728;48.788;2.302;2022-08-19T11:04:36;23.10;99.90
59847;DHT22;45728;48.788;2.302;2022-08-19T11:07:02;23.00;99.90
59847;DHT22;45728;48.788;2.302;2022-08-19T11:09:29;23.20;99.90
59847;DHT22;45728;48.788;2.302;2022-08-19T11:11:55;23.30;99.90
59847;DHT22;45728;48.788;2.302;2022-08-19T11:14:22;23.50;99.90
59847;DHT22;45728;48.788;2.302;2022-08-19T11:16:50;23.40;99.90
59847;DHT22;45728;48.788;2.302;2022-08-19T11:19:16;23.50;99.90
59847;DHT22;45728;48.788;2.302;2022-08-19T11:21:45;23.80;99.90
59847;DHT22;45728;48.788;2.302;2022-08-19T11:24:13;23.80;99.90
59847;DHT22;45728;48.788;2.302;2022-08-19T11:26:39;23.90;99.90
59847;DHT22;45728;48.788;2.302;2022-08-19T11:29:06;24.20;99.90
59847;DHT22;45728;48.788;2.302;2022-08-19T11:31:33;24.20;99.90
59847;DHT22;45728;48.788;2.302;2022-08-19T11:34:00;24.20;99.90
59847;DHT22;45728;48.788;2.302;2022-08-19T11:36:27;24.30;99.90
59847;DHT22;45728;48.788;2.302;2022-08-19T11:38:53;24.20;99.90
59847;DHT22;45728;48.788;2.302;2022-08-19T11:41:20;24.10;99.90
59847;DHT22;45728;48.788;2.302;2022-08-19T11:43:50;24.00;99.90
59847;DHT22;45728;48.788;2.302;2022-08-19T11:46:19;23.80;99.90
59847;DHT22;45728;48.788;2.302;2022-08-19T11:48:46;23.80;99.90
59847;DHT22;45728;48.788;2.302;2022-08-19T11:51:13;23.80;99.90
59847;DHT22;45728;48.788;2.302;2022-08-19T11:53:39;23.70;99.90
59847;DHT22;45728;48.788;2.302;2022-08-19T11:56:05;23.80;99.90
59847;DHT22;45728;48.788;2.302;2022-08-19T11:58:31;23.60;99.90
59847;DHT22;45728;48.788;2.302;2022-08-19T12:00:58;23.50;99.90
59847;DHT22;45728;48.788;2.302;2022-08-19T12:03:24;23.50;99.90
59847;DHT22;45728;48.788;2.302;2022-08-19T12:05:50;23.60;99.90
59847;DHT22;45728;48.788;2.302;2022-08-19T12:08:17;23.60;99.90
59847;DHT22;45728;48.788;2.302;2022-08-19T12:10:43;23.60;99.90
59847;DHT22;45728;48.788;2.302;2022-08-19T12:13:10;23.60;99.90
59847;DHT22;45728;48.788;2.302;2022-08-19T12:15:36;23.40;99.90
59847;DHT22;45728;48.788;2.302;2022-08-19T12:18:03;23.30;99.90
59847;DHT22;45728;48.788;2.302;2022-08-19T12:20:29;23.30;99.90
59847;DHT22;45728;48.788;2.302;2022-08-19T12:22:55;23.30;99.90
59847;DHT22;45728;48.788;2.302;2022-08-19T12:25:21;23.40;99.90
59847;DHT22;45728;48.788;2.302;2022-08-19T12:27:47;23.40;99.90
59847;DHT22;45728;48.788;2.302;2022-08-19T12:30:13;23.30;99.90
59847;DHT22;45728;48.788;2.302;2022-08-19T12:32:39;23.50;99.90
59847;DHT22;45728;48.788;2.302;2022-08-19T12:35:06;23.70;99.90
59847;DHT22;45728;48.788;2.302;2022-08-19T12:37:32;23.90;99.90
59847;DHT22;45728;48.788;2.302;2022-08-19T12:39:58;24.00;99.90
59847;DHT22;45728;48.788;2.302;2022-08-19T12:42:24;23.80;99.90
59847;DHT22;45728;48.788;2.302;2022-08-19T12:44:50;23.60;99.90
59847;DHT22;45728;48.788;2.302;2022-08-19T12:47:17;23.40;99.90
59847;DHT22;45728;48.788;2.302;2022-08-19T12:49:43;23.50;99.90
59847;DHT22;45728;48.788;2.302;2022-08-19T12:52:09;23.40;99.90
59847;DHT22;45728;48.788;2.302;2022-08-19T12:54:36;23.40;99.90
59847;DHT22;45728;48.788;2.302;2022-08-19T12:57:06;23.50;99.90
59847;DHT22;45728;48.788;2.302;2022-08-19T12:59:36;23.60;99.90
59847;DHT22;45728;48.788;2.302;2022-08-19T13:02:03;23.60;99.90
59847;DHT22;45728;48.788;2.302;2022-08-19T13:04:30;23.70;99.90
59847;DHT22;45728;48.788;2.302;2022-08-19T13:06:56;23.90;99.90
59847;DHT22;45728;48.788;2.302;2022-08-19T13:09:22;24.00;99.90
59847;DHT22;45728;48.788;2.302;2022-08-19T13:11:48;24.20;99.90
59847;DHT22;45728;48.788;2.302;2022-08-19T13:14:14;24.20;99.90
59847;DHT22;45728;48.788;2.302;2022-08-19T13:16:40;24.20;99.90
59847;DHT22;45728;48.788;2.302;2022-08-19T13:19:06;24.00;99.90
59847;DHT22;45728;48.788;2.302;2022-08-19T13:21:33;24.10;99.90
59847;DHT22;45728;48.788;2.302;2022-08-19T13:23:58;24.10;99.90
59847;DHT22;45728;48.788;2.302;2022-08-19T13:26:24;24.10;99.90
59847;DHT22;45728;48.788;2.302;2022-08-19T13:28:50;24.20;99.90
59847;DHT22;45728;48.788;2.302;2022-08-19T13:31:35;24.50;99.90
59847;DHT22;45728;48.788;2.302;2022-08-19T13:34:25;24.30;99.90
59847;DHT22;45728;48.788;2.302;2022-08-19T13:36:52;24.30;99.90
59847;DHT22;45728;48.788;2.302;2022-08-19T13:39:18;24.40;99.90
59847;DHT22;45728;48.788;2.302;2022-08-19T13:41:44;24.40;99.90
59847;DHT22;45728;48.788;2.302;2022-08-19T13:44:14;24.20;99.90
59847;DHT22;45728;48.788;2.302;2022-08-19T13:46:41;24.20;99.90
59847;DHT22;45728;48.788;2.302;2022-08-19T13:49:11;24.00;99.90
59847;DHT22;45728;48.788;2.302;2022-08-19T13:51:37;24.00;99.90
59847;DHT22;45728;48.788;2.302;2022-08-19T13:54:07;24.10;99.90
59847;DHT22;45728;48.788;2.302;2022-08-19T13:56:34;24.20;99.90
59847;DHT22;45728;48.788;2.302;2022-08-19T13:59:00;24.30;99.90
59847;DHT22;45728;48.788;2.302;2022-08-19T14:01:26;24.30;99.90
59847;DHT22;45728;48.788;2.302;2022-08-19T14:03:52;24.20;99.90
59847;DHT22;45728;48.788;2.302;2022-08-19T14:06:19;24.20;99.90
59847;DHT22;45728;48.788;2.302;2022-08-19T14:08:46;24.20;99.90
59847;DHT22;45728;48.788;2.302;2022-08-19T14:11:12;24.20;99.90
59847;DHT22;45728;48.788;2.302;2022-08-19T14:13:38;24.40;99.90
59847;DHT22;45728;48.788;2.302;2022-08-19T14:16:08;24.60;99.90
59847;DHT22;45728;48.788;2.302;2022-08-19T14:18:34;24.60;99.90
59847;DHT22;45728;48.788;2.302;2022-08-19T14:21:00;24.40;99.90
59847;DHT22;45728;48.788;2.302;2022-08-19T14:23:26;24.40;99.90
59847;DHT22;45728;48.788;2.302;2022-08-19T14:25:52;24.40;99.90
59847;DHT22;45728;48.788;2.302;2022-08-19T14:28:18;24.60;99.90
59847;DHT22;45728;48.788;2.302;2022-08-19T14:30:44;24.70;99.90
59847;DHT22;45728;48.788;2.302;2022-08-19T14:33:10;25.10;99.90
59847;DHT22;45728;48.788;2.302;2022-08-19T14:35:36;25.20;99.90
59847;DHT22;45728;48.788;2.302;2022-08-19T14:38:03;25.30;99.90
59847;DHT22;45728;48.788;2.302;2022-08-19T14:40:30;25.10;99.90
59847;DHT22;45728;48.788;2.302;2022-08-19T14:42:58;24.90;99.90
59847;DHT22;45728;48.788;2.302;2022-08-19T14:45:27;24.90;99.90
59847;DHT22;45728;48.788;2.302;2022-08-19T14:50:38;24.90;99.90
59847;DHT22;45728;48.788;2.302;2022-08-19T14:53:06;24.90;99.90
59847;DHT22;45728;48.788;2.302;2022-08-19T14:55:32;24.80;99.90
59847;DHT22;45728;48.788;2.302;2022-08-19T14:57:59;24.50;99.90
59847;DHT22;45728;48.788;2.302;2022-08-19T15:00:25;24.40;99.90
59847;DHT22;45728;48.788;2.302;2022-08-19T15:02:51;24.50;99.90
59847;DHT22;45728;48.788;2.302;2022-08-19T15:05:16;24.50;99.90
59847;DHT22;45728;48.788;2.302;2022-08-19T15:07:43;24.60;99.90
59847;DHT22;45728;48.788;2.302;2022-08-19T15:10:09;24.60;99.90
59847;DHT22;45728;48.788;2.302;2022-08-19T15:12:36;24.60;99.90
59847;DHT22;45728;48.788;2.302;2022-08-19T15:15:04;24.50;99.90
59847;DHT22;45728;48.788;2.302;2022-08-19T15:17:30;24.40;99.90
59847;DHT22;45728;48.788;2.302;2022-08-19T15:19:56;24.50;99.90
59847;DHT22;45728;48.788;2.302;2022-08-19T15:22:21;24.60;99.90
59847;DHT22;45728;48.788;2.302;2022-08-19T15:24:47;24.70;99.90
59847;DHT22;45728;48.788;2.302;2022-08-19T15:27:14;24.70;99.90
59847;DHT22;45728;48.788;2.302;2022-08-19T15:29:40;24.80;99.90
59847;DHT22;45728;48.788;2.302;2022-08-19T15:32:06;24.60;99.90
59847;DHT22;45728;48.788;2.302;2022-08-19T15:34:33;24.60;99.90
59847;DHT22;45728;48.788;2.302;2022-08-19T15:36:59;24.70;99.90
59847;DHT22;45728;48.788;2.302;2022-08-19T15:39:25;24.80;99.90